TUI8EA LGIR-EDDL
Flight info
| Callsign | TUI8EA |
|---|---|
| Flight time | 3h 24m |
| Altitude | 38000 |
| Route | EPALO M749 DIRMI UL613 YNN UL604 DIMIS DCT RETRA DCT PETOV DCT LAMSI L604 RODIS DCT TESDU DCT AMETU T852 TINSA T854 DOMUX DOMUX1A |
| Aircraft | B738/M-SDE2E3FGHIRWXY/LB1 |
Departure
| Time | 2026-05-07 17:23 |
|---|---|
| Airport | Heraklion International Nikos Kazantzakis Airport (LGIR) |
Arrival
| Time | 2026-05-07 20:47 |
|---|---|
| Airport | Düsseldorf Airport (EDDL) |
| Time | Latitude | Longitude | Altitude | Speed | Heading |
|---|---|---|---|---|---|
| 2026-05-07 16:55 | 35.33804 | 25.17545 | 122 ft | 0 kts | 319° |
| 2026-05-07 17:18 | 35.33805 | 25.17545 | 122 ft | 1 kts | 319° |
| 2026-05-07 17:18 | 35.33833 | 25.17516 | 121 ft | 6 kts | 327° |
| 2026-05-07 17:18 | 35.33889 | 25.17512 | 116 ft | 9 kts | 31° |
| 2026-05-07 17:18 | 35.33905 | 25.17584 | 112 ft | 9 kts | 94° |
| 2026-05-07 17:19 | 35.33897 | 25.17707 | 112 ft | 20 kts | 95° |
| 2026-05-07 17:19 | 35.33882 | 25.17914 | 106 ft | 25 kts | 95° |
| 2026-05-07 17:19 | 35.33867 | 25.18129 | 102 ft | 23 kts | 95° |
| 2026-05-07 17:19 | 35.33852 | 25.18335 | 103 ft | 23 kts | 95° |
| 2026-05-07 17:20 | 35.33839 | 25.18520 | 104 ft | 19 kts | 95° |
| 2026-05-07 17:20 | 35.33829 | 25.18674 | 105 ft | 16 kts | 95° |
| 2026-05-07 17:20 | 35.33820 | 25.18813 | 102 ft | 16 kts | 95° |
| 2026-05-07 17:20 | 35.33812 | 25.18917 | 96 ft | 9 kts | 82° |
| 2026-05-07 17:21 | 35.33854 | 25.19005 | 92 ft | 12 kts | 56° |
| 2026-05-07 17:21 | 35.33894 | 25.19055 | 94 ft | 5 kts | 346° |
| 2026-05-07 17:21 | 35.33908 | 25.19031 | 94 ft | 2 kts | 261° |
| 2026-05-07 17:21 | 35.33907 | 25.18991 | 94 ft | 7 kts | 274° |
| 2026-05-07 17:22 | 35.33907 | 25.18984 | 94 ft | 0 kts | 275° |
| 2026-05-07 17:22 | 35.33913 | 25.18897 | 94 ft | 38 kts | 275° |
| 2026-05-07 17:22 | 35.33957 | 25.18272 | 96 ft | 104 kts | 274° |
| 2026-05-07 17:23 | 35.34034 | 25.17159 | 95 ft | 157 kts | 275° |
| 2026-05-07 17:23 | 35.34129 | 25.15752 | 503 ft | 168 kts | 274° |
| 2026-05-07 17:23 | 35.34399 | 25.14367 | 1052 ft | 174 kts | 307° |
| 2026-05-07 17:23 | 35.35416 | 25.13620 | 1556 ft | 181 kts | 354° |
| 2026-05-07 17:24 | 35.36664 | 25.13850 | 2010 ft | 185 kts | 5° |
| 2026-05-07 17:24 | 35.37942 | 25.13611 | 2405 ft | 188 kts | 355° |
| 2026-05-07 17:24 | 35.39206 | 25.13904 | 2822 ft | 191 kts | 25° |
| 2026-05-07 17:24 | 35.40485 | 25.14686 | 2934 ft | 216 kts | 20° |
| 2026-05-07 17:25 | 35.42030 | 25.14912 | 3133 ft | 237 kts | 353° |
| 2026-05-07 17:25 | 35.43682 | 25.14496 | 3548 ft | 251 kts | 343° |
| 2026-05-07 17:25 | 35.45323 | 25.13657 | 3966 ft | 264 kts | 333° |
| 2026-05-07 17:25 | 35.46988 | 25.12682 | 4604 ft | 268 kts | 339° |
| 2026-05-07 17:26 | 35.48747 | 25.11826 | 5184 ft | 274 kts | 339° |
| 2026-05-07 17:26 | 35.50502 | 25.10981 | 5930 ft | 274 kts | 339° |
| 2026-05-07 17:26 | 35.52241 | 25.10135 | 6658 ft | 274 kts | 339° |
| 2026-05-07 17:26 | 35.54015 | 25.09269 | 7416 ft | 273 kts | 338° |
| 2026-05-07 17:27 | 35.55689 | 25.08207 | 8140 ft | 274 kts | 335° |
| 2026-05-07 17:27 | 35.57441 | 25.07336 | 8841 ft | 275 kts | 340° |
| 2026-05-07 17:27 | 35.59243 | 25.06562 | 9522 ft | 278 kts | 340° |
| 2026-05-07 17:27 | 35.61060 | 25.05767 | 10212 ft | 280 kts | 339° |
| 2026-05-07 17:28 | 35.62922 | 25.04933 | 10500 ft | 297 kts | 339° |
| 2026-05-07 17:28 | 35.64914 | 25.04033 | 10729 ft | 315 kts | 339° |
| 2026-05-07 17:28 | 35.67025 | 25.03077 | 10979 ft | 332 kts | 339° |
| 2026-05-07 17:28 | 35.69235 | 25.02078 | 11381 ft | 343 kts | 339° |
| 2026-05-07 17:29 | 35.71462 | 25.01069 | 11969 ft | 347 kts | 338° |
| 2026-05-07 17:29 | 35.73723 | 25.00022 | 12611 ft | 350 kts | 338° |
| 2026-05-07 17:29 | 35.75987 | 24.98956 | 13219 ft | 354 kts | 338° |
| 2026-05-07 17:29 | 35.78290 | 24.97868 | 13839 ft | 357 kts | 338° |
| 2026-05-07 17:30 | 35.80627 | 24.96769 | 14488 ft | 360 kts | 338° |
| 2026-05-07 17:30 | 35.82956 | 24.95677 | 15124 ft | 363 kts | 337° |
| 2026-05-07 17:30 | 35.85327 | 24.94562 | 15752 ft | 366 kts | 337° |
| 2026-05-07 17:30 | 35.87704 | 24.93444 | 16349 ft | 370 kts | 337° |
| 2026-05-07 17:31 | 35.90087 | 24.92320 | 16933 ft | 373 kts | 336° |
| 2026-05-07 17:31 | 35.92532 | 24.91167 | 17507 ft | 377 kts | 336° |
| 2026-05-07 17:31 | 35.94980 | 24.90011 | 18068 ft | 380 kts | 336° |
| 2026-05-07 17:31 | 35.97450 | 24.88843 | 18666 ft | 382 kts | 336° |
| 2026-05-07 17:32 | 35.99893 | 24.87686 | 19291 ft | 382 kts | 336° |
| 2026-05-07 17:32 | 36.02362 | 24.86497 | 19882 ft | 383 kts | 334° |
| 2026-05-07 17:32 | 36.04773 | 24.85105 | 20479 ft | 382 kts | 330° |
| 2026-05-07 17:32 | 36.06311 | 24.84018 | 20854 ft | 382 kts | 324° |
| 2026-05-07 17:33 | 36.09132 | 24.81438 | 21594 ft | 381 kts | 320° |
| 2026-05-07 17:33 | 36.11211 | 24.79396 | 22112 ft | 383 kts | 320° |
| 2026-05-07 17:33 | 36.13297 | 24.77335 | 22632 ft | 384 kts | 320° |
| 2026-05-07 17:33 | 36.15354 | 24.75300 | 23129 ft | 385 kts | 320° |
| 2026-05-07 17:34 | 36.17461 | 24.73214 | 23534 ft | 389 kts | 320° |
| 2026-05-07 17:34 | 36.19557 | 24.71139 | 24039 ft | 390 kts | 320° |
| 2026-05-07 17:34 | 36.21687 | 24.69031 | 24513 ft | 391 kts | 320° |
| 2026-05-07 17:34 | 36.23793 | 24.66942 | 24959 ft | 392 kts | 320° |
| 2026-05-07 17:35 | 36.25914 | 24.64836 | 25427 ft | 393 kts | 319° |
| 2026-05-07 17:35 | 36.28049 | 24.62719 | 25910 ft | 393 kts | 319° |
| 2026-05-07 17:35 | 36.30177 | 24.60600 | 26304 ft | 395 kts | 319° |
| 2026-05-07 17:35 | 36.32291 | 24.58491 | 26718 ft | 396 kts | 319° |
| 2026-05-07 17:36 | 36.34434 | 24.56351 | 27112 ft | 397 kts | 319° |
| 2026-05-07 17:36 | 36.36584 | 24.54203 | 27490 ft | 398 kts | 318° |
| 2026-05-07 17:36 | 36.38754 | 24.52033 | 27866 ft | 399 kts | 318° |
| 2026-05-07 17:36 | 36.40894 | 24.49893 | 28221 ft | 401 kts | 318° |
| 2026-05-07 17:37 | 36.43059 | 24.47724 | 28575 ft | 402 kts | 318° |
| 2026-05-07 17:37 | 36.45234 | 24.45546 | 28954 ft | 402 kts | 317° |
| 2026-05-07 17:37 | 36.47406 | 24.43370 | 29418 ft | 400 kts | 317° |
| 2026-05-07 17:37 | 36.49544 | 24.41228 | 29882 ft | 397 kts | 317° |
| 2026-05-07 17:38 | 36.51683 | 24.39081 | 30356 ft | 395 kts | 317° |
| 2026-05-07 17:38 | 36.53791 | 24.36959 | 30837 ft | 391 kts | 317° |
| 2026-05-07 17:38 | 36.55875 | 24.34859 | 31303 ft | 388 kts | 317° |
| 2026-05-07 17:38 | 36.57971 | 24.32742 | 31794 ft | 384 kts | 317° |
| 2026-05-07 17:39 | 36.60027 | 24.30663 | 32248 ft | 381 kts | 317° |
| 2026-05-07 17:39 | 36.62051 | 24.28616 | 32696 ft | 378 kts | 317° |
| 2026-05-07 17:39 | 36.64099 | 24.26547 | 33132 ft | 375 kts | 317° |
| 2026-05-07 17:39 | 36.66105 | 24.24519 | 33552 ft | 373 kts | 317° |
| 2026-05-07 17:40 | 36.68102 | 24.22493 | 34022 ft | 368 kts | 317° |
| 2026-05-07 17:40 | 36.70050 | 24.20521 | 34421 ft | 365 kts | 318° |
| 2026-05-07 17:40 | 36.72026 | 24.18526 | 34811 ft | 362 kts | 318° |
| 2026-05-07 17:40 | 36.73961 | 24.16570 | 35188 ft | 360 kts | 318° |
| 2026-05-07 17:41 | 36.75900 | 24.14610 | 35574 ft | 356 kts | 317° |
| 2026-05-07 17:41 | 36.77788 | 24.12709 | 35990 ft | 352 kts | 317° |
| 2026-05-07 17:41 | 36.79694 | 24.10778 | 36306 ft | 350 kts | 317° |
| 2026-05-07 17:41 | 36.81557 | 24.08883 | 36633 ft | 348 kts | 317° |
| 2026-05-07 17:42 | 36.83416 | 24.06991 | 36925 ft | 347 kts | 317° |
| 2026-05-07 17:42 | 36.85270 | 24.05106 | 37211 ft | 345 kts | 317° |
| 2026-05-07 17:42 | 36.87124 | 24.03220 | 37487 ft | 344 kts | 317° |
| 2026-05-07 17:42 | 36.88977 | 24.01334 | 37759 ft | 343 kts | 318° |
| 2026-05-07 17:43 | 36.90825 | 23.99454 | 38023 ft | 342 kts | 318° |
| 2026-05-07 17:43 | 36.92654 | 23.97592 | 38169 ft | 343 kts | 318° |
| 2026-05-07 17:43 | 36.96350 | 23.93831 | 38145 ft | 341 kts | 318° |
| 2026-05-07 17:44 | 36.99982 | 23.90132 | 38130 ft | 337 kts | 318° |
| 2026-05-07 17:44 | 37.03608 | 23.86432 | 38130 ft | 338 kts | 318° |
| 2026-05-07 17:45 | 37.07247 | 23.82711 | 38129 ft | 340 kts | 318° |
| 2026-05-07 17:45 | 37.10875 | 23.79000 | 38129 ft | 340 kts | 318° |
| 2026-05-07 17:46 | 37.14532 | 23.75252 | 38129 ft | 339 kts | 318° |
| 2026-05-07 17:46 | 37.18180 | 23.71527 | 38130 ft | 342 kts | 317° |
| 2026-05-07 17:47 | 37.21867 | 23.67730 | 38129 ft | 343 kts | 317° |
| 2026-05-07 17:47 | 37.25543 | 23.63947 | 38128 ft | 342 kts | 317° |
| 2026-05-07 17:48 | 37.29213 | 23.60177 | 38130 ft | 345 kts | 316° |
| 2026-05-07 17:48 | 37.32922 | 23.56344 | 38129 ft | 346 kts | 316° |
| 2026-05-07 17:49 | 37.36630 | 23.52511 | 38129 ft | 345 kts | 316° |
| 2026-05-07 17:49 | 37.40328 | 23.48687 | 38129 ft | 345 kts | 316° |
| 2026-05-07 17:50 | 37.44009 | 23.44875 | 38129 ft | 345 kts | 316° |
| 2026-05-07 17:50 | 37.47713 | 23.41035 | 38129 ft | 345 kts | 316° |
| 2026-05-07 17:51 | 37.51392 | 23.37215 | 38129 ft | 345 kts | 316° |
| 2026-05-07 17:51 | 37.55088 | 23.33369 | 38129 ft | 346 kts | 316° |
| 2026-05-07 17:52 | 37.58772 | 23.29517 | 38129 ft | 345 kts | 316° |
| 2026-05-07 17:52 | 37.62452 | 23.25674 | 38129 ft | 345 kts | 316° |
| 2026-05-07 17:53 | 37.66155 | 23.21802 | 38130 ft | 347 kts | 316° |
| 2026-05-07 17:53 | 37.69861 | 23.17930 | 38129 ft | 348 kts | 316° |
| 2026-05-07 17:54 | 37.73580 | 23.14040 | 38129 ft | 347 kts | 316° |
| 2026-05-07 17:54 | 37.77261 | 23.10182 | 38130 ft | 343 kts | 316° |
| 2026-05-07 17:55 | 37.80886 | 23.06386 | 38129 ft | 335 kts | 316° |
| 2026-05-07 17:55 | 37.84466 | 23.02621 | 38130 ft | 338 kts | 316° |
| 2026-05-07 17:56 | 37.88074 | 22.98823 | 38129 ft | 341 kts | 316° |
| 2026-05-07 17:56 | 37.91724 | 22.94980 | 38129 ft | 340 kts | 316° |
| 2026-05-07 17:57 | 37.94689 | 22.91748 | 38129 ft | 338 kts | 314° |
| 2026-05-07 17:57 | 37.98680 | 22.87085 | 38129 ft | 338 kts | 314° |
| 2026-05-07 17:58 | 38.02137 | 22.83047 | 38129 ft | 338 kts | 314° |
| 2026-05-07 17:58 | 38.05595 | 22.79015 | 38129 ft | 338 kts | 314° |
| 2026-05-07 17:59 | 38.09041 | 22.74996 | 38129 ft | 338 kts | 314° |
| 2026-05-07 17:59 | 38.12510 | 22.70953 | 38130 ft | 341 kts | 314° |
| 2026-05-07 18:00 | 38.15992 | 22.66907 | 38129 ft | 341 kts | 314° |
| 2026-05-07 18:00 | 38.19480 | 22.62851 | 38127 ft | 342 kts | 314° |
| 2026-05-07 18:01 | 38.23026 | 22.58710 | 38131 ft | 353 kts | 314° |
| 2026-05-07 18:01 | 38.26675 | 22.54469 | 38103 ft | 361 kts | 314° |
| 2026-05-07 18:02 | 38.30384 | 22.50158 | 37990 ft | 362 kts | 313° |
| 2026-05-07 18:02 | 38.32212 | 22.48016 | 37993 ft | 360 kts | 313° |
| 2026-05-07 18:03 | 38.35874 | 22.43724 | 38003 ft | 358 kts | 313° |
| 2026-05-07 18:03 | 38.39543 | 22.39419 | 38107 ft | 359 kts | 313° |
| 2026-05-07 18:04 | 38.43201 | 22.35122 | 38102 ft | 361 kts | 313° |
| 2026-05-07 18:04 | 38.46890 | 22.30773 | 38101 ft | 360 kts | 313° |
| 2026-05-07 18:05 | 38.50531 | 22.26477 | 38102 ft | 358 kts | 313° |
| 2026-05-07 18:05 | 38.54183 | 22.22157 | 38102 ft | 360 kts | 313° |
| 2026-05-07 18:06 | 38.57872 | 22.17801 | 38102 ft | 363 kts | 313° |
| 2026-05-07 18:06 | 38.61565 | 22.13435 | 38102 ft | 363 kts | 313° |
| 2026-05-07 18:07 | 38.65255 | 22.09065 | 38102 ft | 361 kts | 313° |
| 2026-05-07 18:07 | 38.68918 | 22.04719 | 38102 ft | 361 kts | 313° |
| 2026-05-07 18:08 | 38.72596 | 22.00347 | 38102 ft | 362 kts | 313° |
| 2026-05-07 18:08 | 38.76283 | 21.95966 | 38102 ft | 362 kts | 312° |
| 2026-05-07 18:09 | 38.79974 | 21.91585 | 38103 ft | 365 kts | 312° |
| 2026-05-07 18:09 | 38.83683 | 21.87143 | 38102 ft | 365 kts | 312° |
| 2026-05-07 18:10 | 38.87378 | 21.82719 | 38102 ft | 364 kts | 312° |
| 2026-05-07 18:10 | 38.91058 | 21.78310 | 38102 ft | 364 kts | 312° |
| 2026-05-07 18:11 | 38.94737 | 21.73895 | 38097 ft | 364 kts | 312° |
| 2026-05-07 18:11 | 38.98413 | 21.69472 | 38075 ft | 364 kts | 312° |
| 2026-05-07 18:12 | 39.02110 | 21.65030 | 38075 ft | 364 kts | 312° |
| 2026-05-07 18:12 | 39.05789 | 21.60602 | 38075 ft | 364 kts | 312° |
| 2026-05-07 18:13 | 39.09477 | 21.56154 | 38075 ft | 364 kts | 312° |
| 2026-05-07 18:13 | 39.13145 | 21.51723 | 38075 ft | 364 kts | 312° |
| 2026-05-07 18:14 | 39.16832 | 21.47263 | 38075 ft | 364 kts | 312° |
| 2026-05-07 18:14 | 39.20510 | 21.42806 | 38075 ft | 364 kts | 312° |
| 2026-05-07 18:15 | 39.24198 | 21.38331 | 38075 ft | 364 kts | 312° |
| 2026-05-07 18:15 | 39.27857 | 21.33908 | 38130 ft | 362 kts | 310° |
| 2026-05-07 18:16 | 39.31491 | 21.29460 | 38129 ft | 361 kts | 310° |
| 2026-05-07 18:16 | 39.35122 | 21.25016 | 38129 ft | 361 kts | 310° |
| 2026-05-07 18:17 | 39.38770 | 21.20531 | 38130 ft | 365 kts | 311° |
| 2026-05-07 18:17 | 39.42462 | 21.16020 | 38129 ft | 368 kts | 311° |
| 2026-05-07 18:18 | 39.46173 | 21.11482 | 38128 ft | 366 kts | 311° |
| 2026-05-07 18:18 | 39.49850 | 21.06976 | 38129 ft | 365 kts | 311° |
| 2026-05-07 18:19 | 39.53511 | 21.02480 | 38129 ft | 365 kts | 311° |
| 2026-05-07 18:19 | 39.57184 | 20.97961 | 38129 ft | 366 kts | 311° |
| 2026-05-07 18:20 | 39.60856 | 20.93437 | 38129 ft | 366 kts | 311° |
| 2026-05-07 18:20 | 39.64515 | 20.88922 | 38129 ft | 365 kts | 311° |
| 2026-05-07 18:21 | 39.68250 | 20.84425 | 38129 ft | 367 kts | 315° |
| 2026-05-07 18:21 | 39.72500 | 20.80706 | 38130 ft | 377 kts | 326° |
| 2026-05-07 18:22 | 39.77217 | 20.77768 | 38131 ft | 377 kts | 327° |
| 2026-05-07 18:22 | 39.81877 | 20.74966 | 38126 ft | 364 kts | 326° |
| 2026-05-07 18:23 | 39.86476 | 20.72177 | 38132 ft | 368 kts | 326° |
| 2026-05-07 18:23 | 39.91110 | 20.69338 | 38128 ft | 373 kts | 326° |
| 2026-05-07 18:24 | 39.95779 | 20.66493 | 38128 ft | 370 kts | 326° |
| 2026-05-07 18:24 | 40.00410 | 20.63667 | 38129 ft | 369 kts | 326° |
| 2026-05-07 18:25 | 40.05071 | 20.60816 | 38129 ft | 370 kts | 326° |
| 2026-05-07 18:25 | 40.09741 | 20.58034 | 38129 ft | 372 kts | 327° |
| 2026-05-07 18:26 | 40.14481 | 20.55375 | 38129 ft | 373 kts | 327° |
| 2026-05-07 18:26 | 40.19217 | 20.52712 | 38129 ft | 372 kts | 327° |
| 2026-05-07 18:27 | 40.23957 | 20.50034 | 38129 ft | 372 kts | 327° |
| 2026-05-07 18:27 | 40.28659 | 20.47379 | 38129 ft | 369 kts | 327° |
| 2026-05-07 18:28 | 40.33361 | 20.44711 | 38129 ft | 366 kts | 327° |
| 2026-05-07 18:28 | 40.37999 | 20.42067 | 38129 ft | 368 kts | 327° |
| 2026-05-07 18:29 | 40.42699 | 20.39386 | 38129 ft | 369 kts | 327° |
| 2026-05-07 18:29 | 40.47364 | 20.36723 | 38129 ft | 369 kts | 327° |
| 2026-05-07 18:30 | 40.52068 | 20.34033 | 38129 ft | 368 kts | 326° |
| 2026-05-07 18:30 | 40.56730 | 20.31353 | 38129 ft | 367 kts | 326° |
| 2026-05-07 18:31 | 40.61402 | 20.28670 | 38129 ft | 367 kts | 326° |
| 2026-05-07 18:31 | 40.66062 | 20.25991 | 38129 ft | 367 kts | 326° |
| 2026-05-07 18:32 | 40.70746 | 20.23302 | 38127 ft | 373 kts | 326° |
| 2026-05-07 18:32 | 40.75553 | 20.20524 | 38130 ft | 382 kts | 326° |
| 2026-05-07 18:33 | 40.80442 | 20.17732 | 38129 ft | 385 kts | 324° |
| 2026-05-07 18:33 | 40.85294 | 20.14921 | 38128 ft | 383 kts | 324° |
| 2026-05-07 18:34 | 40.90161 | 20.12098 | 38129 ft | 382 kts | 324° |
| 2026-05-07 18:34 | 40.95011 | 20.09282 | 38129 ft | 383 kts | 324° |
| 2026-05-07 18:35 | 40.99883 | 20.06448 | 38071 ft | 384 kts | 324° |
| 2026-05-07 18:35 | 41.04749 | 20.03620 | 38075 ft | 383 kts | 324° |
| 2026-05-07 18:36 | 41.09605 | 20.00792 | 38075 ft | 383 kts | 324° |
| 2026-05-07 18:36 | 41.14447 | 19.97966 | 38075 ft | 383 kts | 324° |
| 2026-05-07 18:37 | 41.19335 | 19.95110 | 38075 ft | 383 kts | 324° |
| 2026-05-07 18:37 | 41.24179 | 19.92276 | 38075 ft | 383 kts | 324° |
| 2026-05-07 18:38 | 41.29025 | 19.89448 | 38073 ft | 375 kts | 324° |
| 2026-05-07 18:38 | 41.33717 | 19.86704 | 38075 ft | 369 kts | 323° |
| 2026-05-07 18:39 | 41.38426 | 19.83918 | 38076 ft | 373 kts | 323° |
| 2026-05-07 18:39 | 41.43168 | 19.81117 | 38075 ft | 375 kts | 323° |
| 2026-05-07 18:40 | 41.47914 | 19.78319 | 38075 ft | 373 kts | 323° |
| 2026-05-07 18:40 | 41.52638 | 19.75529 | 38075 ft | 373 kts | 323° |
| 2026-05-07 18:41 | 41.57357 | 19.72748 | 38077 ft | 376 kts | 323° |
| 2026-05-07 18:41 | 41.62123 | 19.69912 | 38074 ft | 379 kts | 323° |
| 2026-05-07 18:42 | 41.66817 | 19.67125 | 38074 ft | 376 kts | 323° |
| 2026-05-07 18:42 | 41.71562 | 19.64304 | 38075 ft | 375 kts | 323° |
| 2026-05-07 18:43 | 41.76339 | 19.61456 | 38075 ft | 376 kts | 323° |
| 2026-05-07 18:43 | 41.81070 | 19.58631 | 38075 ft | 376 kts | 323° |
| 2026-05-07 18:44 | 41.85852 | 19.55773 | 38075 ft | 376 kts | 323° |
| 2026-05-07 18:44 | 41.90617 | 19.52922 | 38075 ft | 376 kts | 323° |
| 2026-05-07 18:45 | 41.95369 | 19.50072 | 38075 ft | 376 kts | 323° |
| 2026-05-07 18:45 | 42.00131 | 19.47213 | 38075 ft | 376 kts | 323° |
| 2026-05-07 18:46 | 42.04892 | 19.44348 | 38075 ft | 376 kts | 323° |
| 2026-05-07 18:46 | 42.09655 | 19.41478 | 38075 ft | 376 kts | 323° |
| 2026-05-07 18:47 | 42.14405 | 19.38611 | 38075 ft | 376 kts | 323° |
| 2026-05-07 18:47 | 42.19181 | 19.35725 | 38075 ft | 376 kts | 323° |
| 2026-05-07 18:48 | 42.23874 | 19.32766 | 38074 ft | 370 kts | 319° |
| 2026-05-07 18:48 | 42.28339 | 19.29360 | 38075 ft | 373 kts | 318° |
| 2026-05-07 18:49 | 42.32896 | 19.25823 | 38077 ft | 386 kts | 319° |
| 2026-05-07 18:49 | 42.37586 | 19.22241 | 38075 ft | 389 kts | 320° |
| 2026-05-07 18:50 | 42.42250 | 19.18688 | 38074 ft | 386 kts | 320° |
| 2026-05-07 18:50 | 42.46907 | 19.15130 | 38075 ft | 385 kts | 320° |
| 2026-05-07 18:51 | 42.51536 | 19.11580 | 38075 ft | 385 kts | 320° |
| 2026-05-07 18:51 | 42.56178 | 19.08013 | 38075 ft | 386 kts | 320° |
| 2026-05-07 18:52 | 42.60855 | 19.04416 | 38075 ft | 386 kts | 320° |
| 2026-05-07 18:52 | 42.65501 | 19.00835 | 38075 ft | 386 kts | 320° |
| 2026-05-07 18:53 | 42.70146 | 18.97249 | 38075 ft | 386 kts | 320° |
| 2026-05-07 18:53 | 42.74801 | 18.93649 | 38075 ft | 386 kts | 320° |
| 2026-05-07 18:54 | 42.79455 | 18.90020 | 38075 ft | 390 kts | 321° |
| 2026-05-07 18:54 | 42.84187 | 18.86340 | 38076 ft | 397 kts | 321° |
| 2026-05-07 18:55 | 42.88982 | 18.82627 | 38074 ft | 394 kts | 321° |
| 2026-05-07 18:55 | 42.93710 | 18.78954 | 38075 ft | 392 kts | 321° |
| 2026-05-07 18:56 | 42.98430 | 18.75272 | 38046 ft | 394 kts | 321° |
| 2026-05-07 18:56 | 43.03202 | 18.71530 | 38050 ft | 400 kts | 321° |
| 2026-05-07 18:57 | 43.08031 | 18.67747 | 38047 ft | 402 kts | 321° |
| 2026-05-07 18:57 | 43.12844 | 18.63979 | 38047 ft | 399 kts | 321° |
| 2026-05-07 18:58 | 43.17632 | 18.60220 | 38072 ft | 398 kts | 321° |
| 2026-05-07 18:58 | 43.22422 | 18.56446 | 38075 ft | 400 kts | 321° |
| 2026-05-07 18:59 | 43.27233 | 18.52649 | 38073 ft | 403 kts | 321° |
| 2026-05-07 18:59 | 43.32145 | 18.48732 | 38077 ft | 415 kts | 323° |
| 2026-05-07 19:00 | 43.37125 | 18.44796 | 38074 ft | 416 kts | 323° |
| 2026-05-07 19:00 | 43.42136 | 18.40836 | 38074 ft | 413 kts | 323° |
| 2026-05-07 19:01 | 43.47060 | 18.36928 | 38075 ft | 412 kts | 323° |
| 2026-05-07 19:01 | 43.52015 | 18.32979 | 38075 ft | 413 kts | 322° |
| 2026-05-07 19:02 | 43.56980 | 18.29014 | 38075 ft | 413 kts | 322° |
| 2026-05-07 19:02 | 43.61917 | 18.25065 | 38075 ft | 412 kts | 322° |
| 2026-05-07 19:03 | 43.66891 | 18.21085 | 38075 ft | 413 kts | 322° |
| 2026-05-07 19:03 | 43.71831 | 18.17116 | 38075 ft | 414 kts | 322° |
| 2026-05-07 19:04 | 43.76801 | 18.13115 | 38073 ft | 415 kts | 322° |
| 2026-05-07 19:04 | 43.81826 | 18.09047 | 38077 ft | 425 kts | 323° |
| 2026-05-07 19:05 | 43.86940 | 18.04925 | 38074 ft | 424 kts | 323° |
| 2026-05-07 19:05 | 43.91970 | 18.00865 | 38075 ft | 421 kts | 323° |
| 2026-05-07 19:06 | 43.97033 | 17.96763 | 38075 ft | 421 kts | 322° |
| 2026-05-07 19:06 | 44.04608 | 17.90607 | 38075 ft | 423 kts | 323° |
| 2026-05-07 19:07 | 44.09663 | 17.86490 | 38075 ft | 422 kts | 323° |
| 2026-05-07 19:07 | 44.14679 | 17.82396 | 38075 ft | 422 kts | 322° |
| 2026-05-07 19:08 | 44.19744 | 17.78253 | 38075 ft | 422 kts | 322° |
| 2026-05-07 19:08 | 44.24774 | 17.74131 | 38075 ft | 422 kts | 322° |
| 2026-05-07 19:09 | 44.29852 | 17.69949 | 38077 ft | 430 kts | 323° |
| 2026-05-07 19:09 | 44.35016 | 17.65699 | 38074 ft | 432 kts | 323° |
| 2026-05-07 19:10 | 44.40150 | 17.61472 | 38016 ft | 429 kts | 323° |
| 2026-05-07 19:10 | 44.45253 | 17.57260 | 38022 ft | 427 kts | 323° |
| 2026-05-07 19:11 | 44.50383 | 17.53011 | 38021 ft | 429 kts | 323° |
| 2026-05-07 19:11 | 44.55496 | 17.48769 | 38021 ft | 430 kts | 323° |
| 2026-05-07 19:12 | 44.60607 | 17.44520 | 38021 ft | 429 kts | 323° |
| 2026-05-07 19:12 | 44.65731 | 17.40253 | 38021 ft | 429 kts | 323° |
| 2026-05-07 19:13 | 44.70868 | 17.35964 | 38021 ft | 429 kts | 323° |
| 2026-05-07 19:13 | 44.75968 | 17.31695 | 38020 ft | 429 kts | 322° |
| 2026-05-07 19:14 | 44.81134 | 17.27352 | 38024 ft | 438 kts | 323° |
| 2026-05-07 19:14 | 44.86366 | 17.22957 | 38020 ft | 439 kts | 323° |
| 2026-05-07 19:15 | 44.91576 | 17.18579 | 38020 ft | 435 kts | 323° |
| 2026-05-07 19:15 | 44.96728 | 17.14233 | 38021 ft | 435 kts | 323° |
| 2026-05-07 19:16 | 45.01902 | 17.09857 | 38021 ft | 437 kts | 323° |
| 2026-05-07 19:16 | 45.07103 | 17.05450 | 38021 ft | 437 kts | 323° |
| 2026-05-07 19:17 | 45.12297 | 17.01042 | 38021 ft | 436 kts | 323° |
| 2026-05-07 19:17 | 45.17469 | 16.96640 | 38021 ft | 436 kts | 323° |
| 2026-05-07 19:18 | 45.22650 | 16.92223 | 38048 ft | 436 kts | 323° |
| 2026-05-07 19:18 | 45.27839 | 16.87789 | 38047 ft | 439 kts | 323° |
| 2026-05-07 19:19 | 45.33057 | 16.83316 | 38049 ft | 443 kts | 323° |
| 2026-05-07 19:19 | 45.38311 | 16.78808 | 38047 ft | 442 kts | 323° |
| 2026-05-07 19:20 | 45.43551 | 16.74303 | 38047 ft | 440 kts | 322° |
| 2026-05-07 19:20 | 45.48741 | 16.69835 | 38020 ft | 437 kts | 322° |
| 2026-05-07 19:21 | 45.53928 | 16.65351 | 38022 ft | 437 kts | 322° |
| 2026-05-07 19:21 | 45.59106 | 16.60865 | 38021 ft | 438 kts | 322° |
| 2026-05-07 19:22 | 45.64296 | 16.56360 | 38021 ft | 439 kts | 322° |
| 2026-05-07 19:22 | 45.69473 | 16.51859 | 38021 ft | 438 kts | 322° |
| 2026-05-07 19:23 | 45.74658 | 16.47340 | 38021 ft | 438 kts | 322° |
| 2026-05-07 19:23 | 45.79823 | 16.42831 | 38020 ft | 434 kts | 322° |
| 2026-05-07 19:24 | 45.84966 | 16.38331 | 38021 ft | 432 kts | 322° |
| 2026-05-07 19:24 | 45.90073 | 16.33849 | 38022 ft | 434 kts | 322° |
| 2026-05-07 19:25 | 45.95220 | 16.29321 | 38021 ft | 434 kts | 322° |
| 2026-05-07 19:25 | 46.00325 | 16.24823 | 38021 ft | 434 kts | 322° |
| 2026-05-07 19:26 | 46.05461 | 16.20289 | 38021 ft | 434 kts | 322° |
| 2026-05-07 19:26 | 46.10566 | 16.15771 | 38021 ft | 434 kts | 322° |
| 2026-05-07 19:27 | 46.15721 | 16.11198 | 38022 ft | 434 kts | 322° |
| 2026-05-07 19:27 | 46.20811 | 16.06674 | 38048 ft | 434 kts | 322° |
| 2026-05-07 19:28 | 46.25955 | 16.02090 | 38047 ft | 435 kts | 322° |
| 2026-05-07 19:28 | 46.31104 | 15.97485 | 38049 ft | 439 kts | 321° |
| 2026-05-07 19:29 | 46.36163 | 15.92654 | 38048 ft | 438 kts | 320° |
| 2026-05-07 19:29 | 46.41192 | 15.87749 | 38048 ft | 436 kts | 320° |
| 2026-05-07 19:30 | 46.46195 | 15.82869 | 38048 ft | 436 kts | 320° |
| 2026-05-07 19:30 | 46.51202 | 15.77980 | 38048 ft | 436 kts | 320° |
| 2026-05-07 19:31 | 46.56247 | 15.73050 | 38049 ft | 436 kts | 320° |
| 2026-05-07 19:31 | 46.61235 | 15.68168 | 38048 ft | 434 kts | 320° |
| 2026-05-07 19:32 | 46.66214 | 15.63280 | 38048 ft | 434 kts | 320° |
| 2026-05-07 19:32 | 46.71209 | 15.58366 | 38048 ft | 435 kts | 320° |
| 2026-05-07 19:33 | 46.76173 | 15.53472 | 38043 ft | 435 kts | 320° |
| 2026-05-07 19:33 | 46.81181 | 15.48503 | 38021 ft | 437 kts | 321° |
| 2026-05-07 19:34 | 46.86209 | 15.43534 | 38021 ft | 438 kts | 321° |
| 2026-05-07 19:34 | 46.91233 | 15.38556 | 38021 ft | 437 kts | 321° |
| 2026-05-07 19:35 | 46.96241 | 15.33579 | 38021 ft | 437 kts | 320° |
| 2026-05-07 19:35 | 47.01253 | 15.28583 | 38021 ft | 436 kts | 320° |
| 2026-05-07 19:36 | 47.06235 | 15.23607 | 38022 ft | 436 kts | 320° |
| 2026-05-07 19:36 | 47.11198 | 15.18639 | 38020 ft | 433 kts | 320° |
| 2026-05-07 19:37 | 47.16171 | 15.13647 | 38026 ft | 432 kts | 320° |
| 2026-05-07 19:37 | 47.21121 | 15.08666 | 38077 ft | 434 kts | 320° |
| 2026-05-07 19:38 | 47.26089 | 15.03655 | 38075 ft | 435 kts | 320° |
| 2026-05-07 19:38 | 47.31050 | 14.98637 | 38075 ft | 436 kts | 320° |
| 2026-05-07 19:39 | 47.36037 | 14.93585 | 38075 ft | 436 kts | 320° |
| 2026-05-07 19:39 | 47.40187 | 14.89373 | 38075 ft | 436 kts | 320° |
| 2026-05-07 19:40 | 47.45987 | 14.83474 | 38075 ft | 436 kts | 320° |
| 2026-05-07 19:40 | 47.50958 | 14.78404 | 38075 ft | 436 kts | 320° |
| 2026-05-07 19:41 | 47.55956 | 14.73291 | 38075 ft | 436 kts | 320° |
| 2026-05-07 19:41 | 47.60931 | 14.68187 | 38075 ft | 437 kts | 321° |
| 2026-05-07 19:42 | 47.65924 | 14.63061 | 38075 ft | 437 kts | 321° |
| 2026-05-07 19:42 | 47.70883 | 14.57958 | 38075 ft | 437 kts | 321° |
| 2026-05-07 19:43 | 47.75840 | 14.52841 | 38073 ft | 436 kts | 321° |
| 2026-05-07 19:43 | 47.80817 | 14.47689 | 38048 ft | 438 kts | 321° |
| 2026-05-07 19:44 | 47.85807 | 14.42515 | 38048 ft | 438 kts | 321° |
| 2026-05-07 19:44 | 47.90792 | 14.37334 | 38048 ft | 439 kts | 321° |
| 2026-05-07 19:45 | 47.95772 | 14.32145 | 38048 ft | 439 kts | 320° |
| 2026-05-07 19:45 | 48.00760 | 14.26935 | 38048 ft | 438 kts | 320° |
| 2026-05-07 19:46 | 48.05742 | 14.21719 | 38048 ft | 438 kts | 320° |
| 2026-05-07 19:46 | 48.10704 | 14.16512 | 38048 ft | 437 kts | 320° |
| 2026-05-07 19:47 | 48.15664 | 14.11293 | 38048 ft | 437 kts | 320° |
| 2026-05-07 19:47 | 48.20607 | 14.06080 | 38048 ft | 437 kts | 320° |
| 2026-05-07 19:48 | 48.25551 | 14.00852 | 38048 ft | 437 kts | 320° |
| 2026-05-07 19:48 | 48.30502 | 13.95595 | 38048 ft | 437 kts | 320° |
| 2026-05-07 19:49 | 48.35442 | 13.90351 | 38048 ft | 438 kts | 320° |
| 2026-05-07 19:49 | 48.40388 | 13.85089 | 38048 ft | 437 kts | 320° |
| 2026-05-07 19:50 | 48.45329 | 13.79816 | 38048 ft | 437 kts | 320° |
| 2026-05-07 19:50 | 48.50265 | 13.74535 | 38048 ft | 437 kts | 321° |
| 2026-05-07 19:51 | 48.55215 | 13.69214 | 38048 ft | 438 kts | 321° |
| 2026-05-07 19:51 | 48.60148 | 13.63915 | 38048 ft | 438 kts | 321° |
| 2026-05-07 19:52 | 48.65007 | 13.58366 | 38047 ft | 435 kts | 315° |
| 2026-05-07 19:52 | 48.69360 | 13.52139 | 38048 ft | 433 kts | 313° |
| 2026-05-07 19:53 | 48.73510 | 13.45571 | 38047 ft | 430 kts | 305° |
| 2026-05-07 19:53 | 48.77031 | 13.38349 | 38048 ft | 430 kts | 303° |
| 2026-05-07 19:54 | 48.80613 | 13.31029 | 38048 ft | 432 kts | 303° |
| 2026-05-07 19:54 | 48.84204 | 13.23793 | 38048 ft | 431 kts | 304° |
| 2026-05-07 19:55 | 48.87794 | 13.16588 | 38048 ft | 429 kts | 304° |
| 2026-05-07 19:55 | 48.91415 | 13.09340 | 38048 ft | 429 kts | 304° |
| 2026-05-07 19:56 | 48.95012 | 13.02132 | 38048 ft | 430 kts | 304° |
| 2026-05-07 19:56 | 48.98600 | 12.94928 | 38048 ft | 430 kts | 304° |
| 2026-05-07 19:57 | 49.02206 | 12.87674 | 38048 ft | 430 kts | 304° |
| 2026-05-07 19:57 | 49.05803 | 12.80418 | 38055 ft | 430 kts | 304° |
| 2026-05-07 19:58 | 49.09392 | 12.73155 | 38054 ft | 430 kts | 304° |
| 2026-05-07 19:58 | 49.12821 | 12.66199 | 38055 ft | 430 kts | 304° |
| 2026-05-07 19:59 | 49.16388 | 12.58951 | 38055 ft | 430 kts | 304° |
| 2026-05-07 19:59 | 49.19966 | 12.51658 | 38055 ft | 430 kts | 304° |
| 2026-05-07 20:00 | 49.23543 | 12.44349 | 38055 ft | 430 kts | 304° |
| 2026-05-07 20:00 | 49.27119 | 12.37020 | 38054 ft | 431 kts | 304° |
| 2026-05-07 20:01 | 49.30714 | 12.29629 | 38055 ft | 435 kts | 304° |
| 2026-05-07 20:01 | 49.34291 | 12.22249 | 38054 ft | 434 kts | 304° |
| 2026-05-07 20:02 | 49.37864 | 12.14863 | 38054 ft | 432 kts | 304° |
| 2026-05-07 20:02 | 49.41449 | 12.07433 | 38054 ft | 433 kts | 304° |
| 2026-05-07 20:03 | 49.45002 | 12.00051 | 38054 ft | 433 kts | 304° |
| 2026-05-07 20:03 | 49.48587 | 11.92592 | 38026 ft | 433 kts | 304° |
| 2026-05-07 20:04 | 49.52173 | 11.85189 | 38027 ft | 433 kts | 304° |
| 2026-05-07 20:04 | 49.55744 | 11.77798 | 38027 ft | 433 kts | 304° |
| 2026-05-07 20:05 | 49.59333 | 11.70339 | 38027 ft | 433 kts | 304° |
| 2026-05-07 20:05 | 49.62879 | 11.62956 | 38027 ft | 432 kts | 304° |
| 2026-05-07 20:06 | 49.66433 | 11.55535 | 38027 ft | 432 kts | 304° |
| 2026-05-07 20:06 | 49.70005 | 11.48057 | 38027 ft | 432 kts | 304° |
| 2026-05-07 20:07 | 49.73538 | 11.40636 | 38065 ft | 431 kts | 304° |
| 2026-05-07 20:07 | 49.77077 | 11.33177 | 38041 ft | 434 kts | 304° |
| 2026-05-07 20:08 | 49.80637 | 11.25654 | 38076 ft | 433 kts | 304° |
| 2026-05-07 20:08 | 49.84180 | 11.18143 | 38075 ft | 432 kts | 304° |
| 2026-05-07 20:09 | 49.87692 | 11.10684 | 38075 ft | 431 kts | 304° |
| 2026-05-07 20:10 | 49.92961 | 10.99454 | 38075 ft | 431 kts | 304° |
| 2026-05-07 20:10 | 49.96471 | 10.91944 | 38075 ft | 431 kts | 304° |
| 2026-05-07 20:11 | 49.99986 | 10.84403 | 38075 ft | 431 kts | 304° |
| 2026-05-07 20:11 | 50.03498 | 10.76847 | 38075 ft | 431 kts | 304° |
| 2026-05-07 20:12 | 50.06980 | 10.69337 | 38075 ft | 431 kts | 304° |
| 2026-05-07 20:12 | 50.10482 | 10.61758 | 38066 ft | 431 kts | 304° |
| 2026-05-07 20:13 | 50.13974 | 10.54179 | 38064 ft | 431 kts | 304° |
| 2026-05-07 20:13 | 50.17456 | 10.46602 | 38064 ft | 431 kts | 304° |
| 2026-05-07 20:14 | 50.20930 | 10.39018 | 38064 ft | 431 kts | 304° |
| 2026-05-07 20:14 | 50.24351 | 10.31413 | 38063 ft | 431 kts | 303° |
| 2026-05-07 20:15 | 50.27774 | 10.23745 | 38105 ft | 431 kts | 303° |
| 2026-05-07 20:15 | 50.31196 | 10.16072 | 38102 ft | 432 kts | 303° |
| 2026-05-07 20:16 | 50.34639 | 10.08333 | 38060 ft | 432 kts | 303° |
| 2026-05-07 20:16 | 50.38029 | 10.00691 | 38105 ft | 431 kts | 303° |
| 2026-05-07 20:17 | 50.41443 | 9.92973 | 38102 ft | 432 kts | 303° |
| 2026-05-07 20:17 | 50.44842 | 9.85267 | 38102 ft | 432 kts | 303° |
| 2026-05-07 20:18 | 50.48244 | 9.77530 | 38102 ft | 432 kts | 303° |
| 2026-05-07 20:18 | 50.51637 | 9.69797 | 38102 ft | 431 kts | 303° |
| 2026-05-07 20:19 | 50.55019 | 9.62061 | 38102 ft | 431 kts | 303° |
| 2026-05-07 20:19 | 50.58411 | 9.54279 | 38102 ft | 431 kts | 303° |
| 2026-05-07 20:20 | 50.61778 | 9.46532 | 38102 ft | 431 kts | 303° |
| 2026-05-07 20:20 | 50.65148 | 9.38756 | 38102 ft | 431 kts | 303° |
| 2026-05-07 20:21 | 50.68510 | 9.30972 | 38102 ft | 431 kts | 302° |
| 2026-05-07 20:21 | 50.71878 | 9.23153 | 38102 ft | 431 kts | 302° |
| 2026-05-07 20:22 | 50.75238 | 9.15329 | 38102 ft | 431 kts | 302° |
| 2026-05-07 20:22 | 50.78591 | 9.07497 | 38102 ft | 432 kts | 302° |
| 2026-05-07 20:23 | 50.81936 | 8.99660 | 38102 ft | 432 kts | 302° |
| 2026-05-07 20:23 | 50.85450 | 8.91916 | 38102 ft | 433 kts | 306° |
| 2026-05-07 20:24 | 50.89199 | 8.84535 | 37760 ft | 427 kts | 307° |
| 2026-05-07 20:24 | 50.91034 | 8.80913 | 37455 ft | 421 kts | 307° |
| 2026-05-07 20:24 | 50.92857 | 8.77293 | 37004 ft | 428 kts | 307° |
| 2026-05-07 20:24 | 50.94721 | 8.73575 | 36307 ft | 431 kts | 307° |
| 2026-05-07 20:25 | 50.96576 | 8.69866 | 35611 ft | 432 kts | 307° |
| 2026-05-07 20:25 | 50.98433 | 8.66144 | 34889 ft | 433 kts | 308° |
| 2026-05-07 20:25 | 51.00404 | 8.62592 | 34116 ft | 435 kts | 313° |
| 2026-05-07 20:25 | 51.02569 | 8.59234 | 33336 ft | 437 kts | 318° |
| 2026-05-07 20:26 | 51.04990 | 8.56309 | 32589 ft | 438 kts | 324° |
| 2026-05-07 20:26 | 51.07494 | 8.53633 | 31845 ft | 438 kts | 326° |
| 2026-05-07 20:26 | 51.09992 | 8.51023 | 31093 ft | 437 kts | 326° |
| 2026-05-07 20:26 | 51.12529 | 8.48378 | 30549 ft | 431 kts | 326° |
| 2026-05-07 20:27 | 51.15017 | 8.45786 | 29989 ft | 425 kts | 326° |
| 2026-05-07 20:27 | 51.17474 | 8.43226 | 29432 ft | 420 kts | 326° |
| 2026-05-07 20:27 | 51.19886 | 8.40713 | 28865 ft | 416 kts | 326° |
| 2026-05-07 20:27 | 51.22281 | 8.38214 | 28294 ft | 412 kts | 326° |
| 2026-05-07 20:28 | 51.24655 | 8.35734 | 27730 ft | 408 kts | 326° |
| 2026-05-07 20:28 | 51.27005 | 8.33272 | 27166 ft | 405 kts | 325° |
| 2026-05-07 20:28 | 51.29337 | 8.30827 | 26605 ft | 401 kts | 325° |
| 2026-05-07 20:28 | 51.31650 | 8.28399 | 26046 ft | 398 kts | 325° |
| 2026-05-07 20:29 | 51.33949 | 8.25899 | 25496 ft | 394 kts | 320° |
| 2026-05-07 20:29 | 51.35834 | 8.22799 | 24742 ft | 393 kts | 302° |
| 2026-05-07 20:29 | 51.36969 | 8.18938 | 24203 ft | 385 kts | 283° |
| 2026-05-07 20:29 | 51.37227 | 8.14765 | 23738 ft | 379 kts | 265° |
| 2026-05-07 20:30 | 51.36734 | 8.10599 | 23058 ft | 377 kts | 256° |
| 2026-05-07 20:30 | 51.36121 | 8.06561 | 22286 ft | 381 kts | 256° |
| 2026-05-07 20:30 | 51.35508 | 8.02494 | 21538 ft | 382 kts | 256° |
| 2026-05-07 20:30 | 51.34875 | 7.98374 | 20791 ft | 383 kts | 256° |
| 2026-05-07 20:31 | 51.34230 | 7.94242 | 19925 ft | 385 kts | 256° |
| 2026-05-07 20:31 | 51.33573 | 7.90096 | 18982 ft | 390 kts | 256° |
| 2026-05-07 20:31 | 51.32900 | 7.85883 | 18204 ft | 387 kts | 256° |
| 2026-05-07 20:31 | 51.32267 | 7.81934 | 17513 ft | 385 kts | 256° |
| 2026-05-07 20:32 | 51.31605 | 7.77838 | 16797 ft | 382 kts | 256° |
| 2026-05-07 20:32 | 51.30938 | 7.73733 | 16086 ft | 378 kts | 256° |
| 2026-05-07 20:32 | 51.30307 | 7.69870 | 15410 ft | 375 kts | 256° |
| 2026-05-07 20:32 | 51.29639 | 7.65798 | 14713 ft | 372 kts | 256° |
| 2026-05-07 20:33 | 51.28989 | 7.61845 | 14028 ft | 369 kts | 256° |
| 2026-05-07 20:33 | 51.28339 | 7.57905 | 13345 ft | 365 kts | 256° |
| 2026-05-07 20:33 | 51.27692 | 7.53989 | 12666 ft | 362 kts | 256° |
| 2026-05-07 20:33 | 51.27050 | 7.50117 | 11987 ft | 359 kts | 256° |
| 2026-05-07 20:34 | 51.26414 | 7.46289 | 11319 ft | 356 kts | 256° |
| 2026-05-07 20:34 | 51.25791 | 7.42550 | 10658 ft | 353 kts | 256° |
| 2026-05-07 20:34 | 51.25164 | 7.38793 | 10252 ft | 342 kts | 256° |
| 2026-05-07 20:34 | 51.24569 | 7.35236 | 10102 ft | 326 kts | 256° |
| 2026-05-07 20:35 | 51.23997 | 7.31828 | 9947 ft | 312 kts | 255° |
| 2026-05-07 20:35 | 51.23447 | 7.28560 | 9796 ft | 299 kts | 255° |
| 2026-05-07 20:35 | 51.22918 | 7.25417 | 9645 ft | 288 kts | 255° |
| 2026-05-07 20:35 | 51.22403 | 7.22356 | 9394 ft | 282 kts | 255° |
| 2026-05-07 20:36 | 51.21900 | 7.19373 | 9057 ft | 279 kts | 255° |
| 2026-05-07 20:36 | 51.21390 | 7.16365 | 8693 ft | 278 kts | 255° |
| 2026-05-07 20:36 | 51.20889 | 7.13414 | 8332 ft | 277 kts | 255° |
| 2026-05-07 20:36 | 51.20390 | 7.10473 | 7974 ft | 275 kts | 255° |
| 2026-05-07 20:37 | 51.19893 | 7.07555 | 7668 ft | 272 kts | 255° |
| 2026-05-07 20:37 | 51.19401 | 7.04663 | 7417 ft | 267 kts | 255° |
| 2026-05-07 20:37 | 51.18917 | 7.01828 | 7165 ft | 263 kts | 255° |
| 2026-05-07 20:37 | 51.18441 | 6.99041 | 6944 ft | 257 kts | 255° |
| 2026-05-07 20:38 | 51.17979 | 6.96343 | 6766 ft | 251 kts | 255° |
| 2026-05-07 20:38 | 51.17520 | 6.93665 | 6517 ft | 248 kts | 255° |
| 2026-05-07 20:38 | 51.17065 | 6.91020 | 6332 ft | 247 kts | 255° |
| 2026-05-07 20:38 | 51.16607 | 6.88374 | 6102 ft | 247 kts | 255° |
| 2026-05-07 20:39 | 51.16156 | 6.85771 | 5886 ft | 243 kts | 255° |
| 2026-05-07 20:39 | 51.15706 | 6.83184 | 5623 ft | 241 kts | 255° |
| 2026-05-07 20:39 | 51.15266 | 6.80653 | 5439 ft | 236 kts | 255° |
| 2026-05-07 20:39 | 51.14828 | 6.78138 | 5189 ft | 235 kts | 255° |
| 2026-05-07 20:40 | 51.14391 | 6.75626 | 4926 ft | 234 kts | 255° |
| 2026-05-07 20:40 | 51.13954 | 6.73151 | 4675 ft | 233 kts | 255° |
| 2026-05-07 20:40 | 51.13506 | 6.70673 | 4424 ft | 232 kts | 255° |
| 2026-05-07 20:40 | 51.13134 | 6.68186 | 4168 ft | 230 kts | 266° |
| 2026-05-07 20:41 | 51.13099 | 6.65669 | 3997 ft | 224 kts | 272° |
| 2026-05-07 20:41 | 51.13121 | 6.63273 | 3910 ft | 217 kts | 272° |
| 2026-05-07 20:41 | 51.13142 | 6.60909 | 3785 ft | 208 kts | 272° |
| 2026-05-07 20:41 | 51.13174 | 6.58654 | 3624 ft | 201 kts | 277° |
| 2026-05-07 20:42 | 51.13633 | 6.56618 | 3444 ft | 193 kts | 311° |
| 2026-05-07 20:42 | 51.14592 | 6.55169 | 3325 ft | 192 kts | 322° |
| 2026-05-07 20:42 | 51.15626 | 6.53822 | 3183 ft | 193 kts | 322° |
| 2026-05-07 20:42 | 51.16803 | 6.52791 | 3012 ft | 191 kts | 350° |
| 2026-05-07 20:43 | 51.18071 | 6.53022 | 2999 ft | 187 kts | 28° |
| 2026-05-07 20:43 | 51.18972 | 6.54495 | 3001 ft | 192 kts | 66° |
| 2026-05-07 20:43 | 51.19413 | 6.56468 | 3018 ft | 185 kts | 70° |
| 2026-05-07 20:43 | 51.19922 | 6.58289 | 2794 ft | 177 kts | 57° |
| 2026-05-07 20:44 | 51.20617 | 6.59840 | 2592 ft | 169 kts | 52° |
| 2026-05-07 20:44 | 51.21323 | 6.61320 | 2375 ft | 167 kts | 52° |
| 2026-05-07 20:44 | 51.22027 | 6.62789 | 2153 ft | 167 kts | 52° |
| 2026-05-07 20:44 | 51.22725 | 6.64246 | 1925 ft | 165 kts | 52° |
| 2026-05-07 20:45 | 51.23415 | 6.65686 | 1718 ft | 156 kts | 52° |
| 2026-05-07 20:45 | 51.24042 | 6.66997 | 1513 ft | 144 kts | 52° |
| 2026-05-07 20:45 | 51.24652 | 6.68273 | 1305 ft | 145 kts | 52° |
| 2026-05-07 20:45 | 51.25258 | 6.69539 | 1110 ft | 145 kts | 52° |
| 2026-05-07 20:46 | 51.25870 | 6.70820 | 923 ft | 145 kts | 52° |
| 2026-05-07 20:46 | 51.26476 | 6.72087 | 742 ft | 145 kts | 52° |
| 2026-05-07 20:46 | 51.27093 | 6.73382 | 537 ft | 146 kts | 53° |
| 2026-05-07 20:46 | 51.27709 | 6.74673 | 343 ft | 146 kts | 52° |
| 2026-05-07 20:47 | 51.28323 | 6.75962 | 159 ft | 140 kts | 53° |
| 2026-05-07 20:47 | 51.28787 | 6.76933 | 154 ft | 76 kts | 52° |
| 2026-05-07 20:47 | 51.28985 | 6.77352 | 154 ft | 20 kts | 54° |
| 2026-05-07 20:47 | 51.29016 | 6.77534 | 154 ft | 13 kts | 112° |
| 2026-05-07 20:48 | 51.28968 | 6.77614 | 154 ft | 3 kts | 144° |
| 2026-05-07 20:48 | 51.28962 | 6.77621 | 154 ft | 0 kts | 144° |
| 2026-05-07 20:48 | 51.28948 | 6.77636 | 154 ft | 6 kts | 153° |
| 2026-05-07 20:48 | 51.28896 | 6.77624 | 154 ft | 8 kts | 221° |
| 2026-05-07 20:49 | 51.28854 | 6.77544 | 154 ft | 12 kts | 233° |
| 2026-05-07 20:49 | 51.28794 | 6.77417 | 154 ft | 17 kts | 233° |
| 2026-05-07 20:49 | 51.28704 | 6.77225 | 154 ft | 24 kts | 232° |
| 2026-05-07 20:49 | 51.28601 | 6.77011 | 154 ft | 24 kts | 232° |
| 2026-05-07 20:50 | 51.28498 | 6.76794 | 154 ft | 24 kts | 233° |
| 2026-05-07 20:50 | 51.28394 | 6.76574 | 154 ft | 24 kts | 233° |
| 2026-05-07 20:50 | 51.28297 | 6.76371 | 154 ft | 21 kts | 233° |
| 2026-05-07 20:50 | 51.28211 | 6.76192 | 154 ft | 19 kts | 232° |
| 2026-05-07 20:51 | 51.28141 | 6.76049 | 154 ft | 10 kts | 220° |
| 2026-05-07 20:51 | 51.28083 | 6.76040 | 154 ft | 7 kts | 167° |
| 2026-05-07 20:51 | 51.28035 | 6.76048 | 154 ft | 8 kts | 181° |
| 2026-05-07 20:51 | 51.27967 | 6.76048 | 154 ft | 9 kts | 178° |
| 2026-05-07 20:52 | 51.27901 | 6.76048 | 154 ft | 9 kts | 182° |
| 2026-05-07 20:52 | 51.27855 | 6.76076 | 154 ft | 5 kts | 122° |
| 2026-05-07 20:52 | 51.27857 | 6.76122 | 154 ft | 4 kts | 52° |
| 2026-05-07 20:52 | 51.27878 | 6.76165 | 154 ft | 5 kts | 57° |
| 2026-05-07 20:53 | 51.27896 | 6.76214 | 154 ft | 4 kts | 59° |
| 2026-05-07 20:53 | 51.27908 | 6.76246 | 154 ft | 2 kts | 59° |
| 2026-05-07 20:53 | 51.27910 | 6.76252 | 154 ft | 0 kts | 59° |